»·PEaware :: N4065R KSAC-KMCC

N4065R :: KSAC-KMCC

FLIGHT INFORMATION

Flight Status: Arrived
Operator: Privately registered:
United States
More flights under this callsign
Pilot: Brandon D. (30736)
Aircraft: PIPER PA-32 SARATOGA
(PA32)
More flights by this aircraft type
Origin: KSAC Sacramento Executive
United States
Destination: KMCC McClellan
United States
More flights between these airports :: More routes between these airports
Route:
File this flight plan on PilotEdge
Remarks: Weather set to non-precision approach setting in xplane.
Altitude:
(Current/Filed)
3,000ft
Speed:
(Current/Filed)
120kts
Departed: 08-Aug-20 03:14 PM
Arrived: 08-Aug-20 03:47 PM
Distance/Time
Traveled:
11nm/0:32
Distance/Time
To Go:
Arrived

Flight Plot

Page will automatically refresh every two minutes.

Flight plan parsing failed; only flown route is shown


Map Options




Map Legend


Flown Route
Filed Route
Departure Airport
Arrival Airport
Navaid (VOR, NDB)
Fix

Horizontal Profiles

Position Reports

Time Latitude Longitude Heading Altitude Ground
Speed
08-Aug-20 14:53 38.512577 -121.497577 210 20ft 0kts
08-Aug-20 14:54 38.512577 -121.497577 210 20ft 0kts
08-Aug-20 14:55 38.512577 -121.497577 210 20ft 0kts
08-Aug-20 14:56 38.512577 -121.497577 210 20ft 0kts
08-Aug-20 14:57 38.512577 -121.497577 210 20ft 0kts
08-Aug-20 14:58 38.512577 -121.497577 210 20ft 0kts
08-Aug-20 14:59 38.512577 -121.497577 210 20ft 0kts
08-Aug-20 15:00 38.512577 -121.497577 210 20ft 0kts
08-Aug-20 15:01 38.512577 -121.497577 210 20ft 0kts
08-Aug-20 15:02 38.512577 -121.497577 210 20ft 0kts
08-Aug-20 15:03 38.512577 -121.497577 210 20ft 0kts
08-Aug-20 15:04 38.512560 -121.497591 212 20ft 3kts
08-Aug-20 15:05 38.512564 -121.496298 35 20ft 14kts
08-Aug-20 15:07 38.517208 -121.492462 32 22ft 23kts
08-Aug-20 15:08 38.519414 -121.490224 127 23ft 0kts
08-Aug-20 15:09 38.519414 -121.490224 127 23ft 0kts
08-Aug-20 15:10 38.519414 -121.490224 127 23ft 0kts
08-Aug-20 15:11 38.519414 -121.490224 127 23ft 0kts
08-Aug-20 15:12 38.519414 -121.490224 127 23ft 0kts
08-Aug-20 15:13 38.517962 -121.490152 214 23ft 24kts
08-Aug-20 15:14 38.498912 -121.507020 219 568ft 93kts
08-Aug-20 15:15 38.497465 -121.528524 8 1329ft 96kts
08-Aug-20 15:16 38.508900 -121.512492 42 1839ft 98kts
08-Aug-20 15:17 38.522907 -121.498862 38 2379ft 96kts
08-Aug-20 15:18 38.539151 -121.485332 29 2899ft 99kts
08-Aug-20 15:19 38.556384 -121.471160 30 3447ft 99kts
08-Aug-20 15:20 38.575148 -121.459729 24 3780ft 118kts
08-Aug-20 15:21 38.600735 -121.443243 29 3031ft 161kts
08-Aug-20 15:22 38.623948 -121.424011 33 2955ft 154kts
08-Aug-20 15:23 38.642203 -121.409472 24 2851ft 152kts
08-Aug-20 15:24 38.662351 -121.401482 14 2865ft 146kts
08-Aug-20 15:24 38.678449 -121.401093 357 2875ft 145kts
08-Aug-20 15:26 38.706398 -121.402619 358 2933ft 143kts
08-Aug-20 15:26 38.723253 -121.402666 1 2961ft 144kts
08-Aug-20 15:27 38.744254 -121.402152 0 3011ft 144kts
08-Aug-20 15:29 38.771007 -121.402336 358 3088ft 144kts
08-Aug-20 15:29 38.790610 -121.403041 358 3119ft 146kts
08-Aug-20 15:30 38.809836 -121.401057 29 3048ft 152kts
08-Aug-20 15:32 38.825964 -121.381719 44 3071ft 147kts
08-Aug-20 15:32 38.835890 -121.369105 42 2933ft 152kts
08-Aug-20 15:33 38.850445 -121.363807 349 2911ft 150kts
08-Aug-20 15:34 38.867869 -121.366595 354 3013ft 143kts
08-Aug-20 15:35 38.880922 -121.377225 287 2912ft 149kts
08-Aug-20 15:36 38.874571 -121.396747 204 2972ft 142kts
08-Aug-20 15:37 38.854942 -121.397021 177 2962ft 146kts
08-Aug-20 15:38 38.834029 -121.396411 182 3001ft 145kts
08-Aug-20 15:39 38.812294 -121.398183 185 2771ft 124kts
08-Aug-20 15:40 38.797121 -121.400005 177 2414ft 97kts
08-Aug-20 15:41 38.782419 -121.400358 180 2024ft 92kts
08-Aug-20 15:42 38.761710 -121.398850 189 1686ft 88kts
08-Aug-20 15:43 38.736698 -121.400596 179 1234ft 92kts
08-Aug-20 15:44 38.705580 -121.400976 179 561ft 78kts
08-Aug-20 15:45 38.676493 -121.400561 181 73ft 54kts
08-Aug-20 15:46 38.673703 -121.396021 16 75ft 0kts

Navigation Log

Ident Type
Flight plan parsing failed, navigation log unavailable